sensor_id;sensor_type;location;lat;lon;timestamp;temperature;humidity
16287;DHT22;8251;53.568;10.018;2024-01-30T00:01:09;9.20;83.40
16287;DHT22;8251;53.568;10.018;2024-01-30T00:03:36;9.20;83.70
16287;DHT22;8251;53.568;10.018;2024-01-30T00:06:03;9.20;83.70
16287;DHT22;8251;53.568;10.018;2024-01-30T00:08:30;9.20;83.90
16287;DHT22;8251;53.568;10.018;2024-01-30T00:11:00;9.20;83.90
16287;DHT22;8251;53.568;10.018;2024-01-30T00:13:30;9.20;83.90
16287;DHT22;8251;53.568;10.018;2024-01-30T00:16:21;9.20;83.90
16287;DHT22;8251;53.568;10.018;2024-01-30T00:18:49;9.20;83.90
16287;DHT22;8251;53.568;10.018;2024-01-30T00:21:20;9.20;83.90
16287;DHT22;8251;53.568;10.018;2024-01-30T00:23:51;9.20;84.00
16287;DHT22;8251;53.568;10.018;2024-01-30T00:26:20;9.20;84.00
16287;DHT22;8251;53.568;10.018;2024-01-30T00:28:51;9.20;83.90
16287;DHT22;8251;53.568;10.018;2024-01-30T00:31:18;9.20;83.90
16287;DHT22;8251;53.568;10.018;2024-01-30T00:33:48;9.20;83.80
16287;DHT22;8251;53.568;10.018;2024-01-30T00:36:20;9.20;83.80
16287;DHT22;8251;53.568;10.018;2024-01-30T00:38:48;9.10;83.60
16287;DHT22;8251;53.568;10.018;2024-01-30T00:41:17;9.10;83.70
16287;DHT22;8251;53.568;10.018;2024-01-30T00:43:44;9.10;83.80
16287;DHT22;8251;53.568;10.018;2024-01-30T00:46:13;9.00;84.00
16287;DHT22;8251;53.568;10.018;2024-01-30T00:48:42;9.10;84.10
16287;DHT22;8251;53.568;10.018;2024-01-30T00:51:09;9.10;84.10
16287;DHT22;8251;53.568;10.018;2024-01-30T00:53:36;9.10;84.10
16287;DHT22;8251;53.568;10.018;2024-01-30T00:56:03;9.10;84.20
16287;DHT22;8251;53.568;10.018;2024-01-30T00:58:30;9.10;84.20
16287;DHT22;8251;53.568;10.018;2024-01-30T01:01:03;9.10;84.20
16287;DHT22;8251;53.568;10.018;2024-01-30T01:03:32;9.10;84.20
16287;DHT22;8251;53.568;10.018;2024-01-30T01:06:05;9.10;84.00
16287;DHT22;8251;53.568;10.018;2024-01-30T01:08:31;9.00;84.00
16287;DHT22;8251;53.568;10.018;2024-01-30T01:11:08;9.00;83.90
16287;DHT22;8251;53.568;10.018;2024-01-30T01:13:35;9.00;84.00
16287;DHT22;8251;53.568;10.018;2024-01-30T01:16:02;8.90;84.00
16287;DHT22;8251;53.568;10.018;2024-01-30T01:18:34;8.90;84.20
16287;DHT22;8251;53.568;10.018;2024-01-30T01:21:01;8.90;84.30
16287;DHT22;8251;53.568;10.018;2024-01-30T01:23:28;8.90;84.30
16287;DHT22;8251;53.568;10.018;2024-01-30T01:25:55;8.90;84.30
16287;DHT22;8251;53.568;10.018;2024-01-30T01:28:22;8.90;84.20
16287;DHT22;8251;53.568;10.018;2024-01-30T01:30:49;8.90;84.40
16287;DHT22;8251;53.568;10.018;2024-01-30T01:33:16;8.90;84.40
16287;DHT22;8251;53.568;10.018;2024-01-30T01:35:45;8.90;84.30
16287;DHT22;8251;53.568;10.018;2024-01-30T01:38:27;8.90;84.30
16287;DHT22;8251;53.568;10.018;2024-01-30T01:40:54;8.90;84.30
16287;DHT22;8251;53.568;10.018;2024-01-30T01:43:21;8.90;84.40
16287;DHT22;8251;53.568;10.018;2024-01-30T01:45:48;8.90;84.40
16287;DHT22;8251;53.568;10.018;2024-01-30T01:48:15;8.90;84.40
16287;DHT22;8251;53.568;10.018;2024-01-30T01:50:55;8.90;84.20
16287;DHT22;8251;53.568;10.018;2024-01-30T01:53:22;8.80;83.80
16287;DHT22;8251;53.568;10.018;2024-01-30T01:55:49;8.80;84.10
16287;DHT22;8251;53.568;10.018;2024-01-30T01:58:19;8.80;84.30
16287;DHT22;8251;53.568;10.018;2024-01-30T02:00:49;8.80;84.60
16287;DHT22;8251;53.568;10.018;2024-01-30T02:03:19;8.80;84.50
16287;DHT22;8251;53.568;10.018;2024-01-30T02:05:47;8.70;84.50
16287;DHT22;8251;53.568;10.018;2024-01-30T02:08:16;8.80;84.50
16287;DHT22;8251;53.568;10.018;2024-01-30T02:10:42;8.80;84.50
16287;DHT22;8251;53.568;10.018;2024-01-30T02:13:34;8.80;84.50
16287;DHT22;8251;53.568;10.018;2024-01-30T02:16:01;8.80;84.30
16287;DHT22;8251;53.568;10.018;2024-01-30T02:21:35;8.80;84.40
16287;DHT22;8251;53.568;10.018;2024-01-30T02:24:03;8.70;84.30
16287;DHT22;8251;53.568;10.018;2024-01-30T02:26:30;8.80;84.50
16287;DHT22;8251;53.568;10.018;2024-01-30T02:29:03;8.80;84.50
16287;DHT22;8251;53.568;10.018;2024-01-30T02:31:30;8.80;84.60
16287;DHT22;8251;53.568;10.018;2024-01-30T02:33:57;8.80;84.80
16287;DHT22;8251;53.568;10.018;2024-01-30T02:36:24;8.80;84.80
16287;DHT22;8251;53.568;10.018;2024-01-30T02:38:52;8.80;84.70
16287;DHT22;8251;53.568;10.018;2024-01-30T02:41:19;8.80;84.60
16287;DHT22;8251;53.568;10.018;2024-01-30T02:43:45;8.90;84.50
16287;DHT22;8251;53.568;10.018;2024-01-30T02:46:12;8.90;84.60
16287;DHT22;8251;53.568;10.018;2024-01-30T02:48:39;8.90;84.70
16287;DHT22;8251;53.568;10.018;2024-01-30T02:51:06;8.90;84.60
16287;DHT22;8251;53.568;10.018;2024-01-30T02:53:33;8.90;84.60
16287;DHT22;8251;53.568;10.018;2024-01-30T02:56:02;8.90;84.60
16287;DHT22;8251;53.568;10.018;2024-01-30T02:58:31;9.00;84.50
16287;DHT22;8251;53.568;10.018;2024-01-30T03:01:05;8.90;84.30
16287;DHT22;8251;53.568;10.018;2024-01-30T03:03:34;8.90;84.10
16287;DHT22;8251;53.568;10.018;2024-01-30T03:06:02;8.90;84.20
16287;DHT22;8251;53.568;10.018;2024-01-30T03:08:42;8.90;84.30
16287;DHT22;8251;53.568;10.018;2024-01-30T03:11:11;8.80;84.30
16287;DHT22;8251;53.568;10.018;2024-01-30T03:13:40;8.80;84.40
16287;DHT22;8251;53.568;10.018;2024-01-30T03:16:08;8.80;84.40
16287;DHT22;8251;53.568;10.018;2024-01-30T03:19:13;8.80;84.60
16287;DHT22;8251;53.568;10.018;2024-01-30T03:21:27;8.80;84.60
16287;DHT22;8251;53.568;10.018;2024-01-30T03:23:54;8.80;84.50
16287;DHT22;8251;53.568;10.018;2024-01-30T03:26:23;8.80;84.60
16287;DHT22;8251;53.568;10.018;2024-01-30T03:28:54;8.80;84.90
16287;DHT22;8251;53.568;10.018;2024-01-30T03:31:24;8.80;84.90
16287;DHT22;8251;53.568;10.018;2024-01-30T03:33:54;8.80;84.90
16287;DHT22;8251;53.568;10.018;2024-01-30T03:36:30;8.80;84.90
16287;DHT22;8251;53.568;10.018;2024-01-30T03:39:03;8.80;84.90
16287;DHT22;8251;53.568;10.018;2024-01-30T03:41:34;8.80;84.90
16287;DHT22;8251;53.568;10.018;2024-01-30T03:44:03;8.70;84.80
16287;DHT22;8251;53.568;10.018;2024-01-30T03:46:33;8.70;84.80
16287;DHT22;8251;53.568;10.018;2024-01-30T03:49:03;8.70;84.80
16287;DHT22;8251;53.568;10.018;2024-01-30T03:51:30;8.70;85.20
16287;DHT22;8251;53.568;10.018;2024-01-30T03:53:57;8.70;85.20
16287;DHT22;8251;53.568;10.018;2024-01-30T03:56:24;8.70;85.20
16287;DHT22;8251;53.568;10.018;2024-01-30T03:58:52;8.70;85.10
16287;DHT22;8251;53.568;10.018;2024-01-30T04:01:25;8.70;85.20
16287;DHT22;8251;53.568;10.018;2024-01-30T04:03:58;8.60;85.10
16287;DHT22;8251;53.568;10.018;2024-01-30T04:06:25;8.70;85.20
16287;DHT22;8251;53.568;10.018;2024-01-30T04:08:52;8.70;85.40
16287;DHT22;8251;53.568;10.018;2024-01-30T04:13:58;8.60;85.00
16287;DHT22;8251;53.568;10.018;2024-01-30T04:16:25;8.50;85.40
16287;DHT22;8251;53.568;10.018;2024-01-30T04:18:52;8.50;85.60
16287;DHT22;8251;53.568;10.018;2024-01-30T04:21:20;8.50;85.80
16287;DHT22;8251;53.568;10.018;2024-01-30T04:23:50;8.50;85.80
16287;DHT22;8251;53.568;10.018;2024-01-30T04:26:19;8.50;85.90
16287;DHT22;8251;53.568;10.018;2024-01-30T04:28:50;8.50;86.00
16287;DHT22;8251;53.568;10.018;2024-01-30T04:31:19;8.50;86.00
16287;DHT22;8251;53.568;10.018;2024-01-30T04:33:46;8.50;86.00
16287;DHT22;8251;53.568;10.018;2024-01-30T04:36:13;8.50;86.00
16287;DHT22;8251;53.568;10.018;2024-01-30T04:38:42;8.50;85.80
16287;DHT22;8251;53.568;10.018;2024-01-30T04:41:20;8.50;86.00
16287;DHT22;8251;53.568;10.018;2024-01-30T04:44:09;8.50;86.20
16287;DHT22;8251;53.568;10.018;2024-01-30T04:46:45;8.50;86.00
16287;DHT22;8251;53.568;10.018;2024-01-30T04:49:15;8.50;86.00
16287;DHT22;8251;53.568;10.018;2024-01-30T04:51:42;8.40;86.20
16287;DHT22;8251;53.568;10.018;2024-01-30T04:54:09;8.40;86.20
16287;DHT22;8251;53.568;10.018;2024-01-30T04:56:52;8.40;86.40
16287;DHT22;8251;53.568;10.018;2024-01-30T04:59:22;8.40;86.60
16287;DHT22;8251;53.568;10.018;2024-01-30T05:01:53;8.40;86.60
16287;DHT22;8251;53.568;10.018;2024-01-30T05:04:20;8.40;86.60
16287;DHT22;8251;53.568;10.018;2024-01-30T05:06:50;8.40;86.70
16287;DHT22;8251;53.568;10.018;2024-01-30T05:09:17;8.40;86.90
16287;DHT22;8251;53.568;10.018;2024-01-30T05:11:44;8.40;86.90
16287;DHT22;8251;53.568;10.018;2024-01-30T05:14:12;8.40;86.90
16287;DHT22;8251;53.568;10.018;2024-01-30T05:16:57;8.40;86.90
16287;DHT22;8251;53.568;10.018;2024-01-30T05:19:28;8.40;86.90
16287;DHT22;8251;53.568;10.018;2024-01-30T05:21:59;8.40;86.90
16287;DHT22;8251;53.568;10.018;2024-01-30T05:24:27;8.40;87.10
16287;DHT22;8251;53.568;10.018;2024-01-30T05:26:53;8.30;87.20
16287;DHT22;8251;53.568;10.018;2024-01-30T05:29:20;8.30;87.40
16287;DHT22;8251;53.568;10.018;2024-01-30T05:31:48;8.40;87.50
16287;DHT22;8251;53.568;10.018;2024-01-30T05:34:19;8.40;87.50
16287;DHT22;8251;53.568;10.018;2024-01-30T05:36:46;8.40;87.50
16287;DHT22;8251;53.568;10.018;2024-01-30T05:39:16;8.40;87.50
16287;DHT22;8251;53.568;10.018;2024-01-30T05:41:43;8.40;87.50
16287;DHT22;8251;53.568;10.018;2024-01-30T05:44:10;8.30;87.60
16287;DHT22;8251;53.568;10.018;2024-01-30T05:46:37;8.40;87.70
16287;DHT22;8251;53.568;10.018;2024-01-30T05:49:04;8.40;87.70
16287;DHT22;8251;53.568;10.018;2024-01-30T05:51:32;8.40;87.70
16287;DHT22;8251;53.568;10.018;2024-01-30T05:53:59;8.40;87.70
16287;DHT22;8251;53.568;10.018;2024-01-30T05:56:29;8.40;87.70
16287;DHT22;8251;53.568;10.018;2024-01-30T05:58:56;8.40;87.70
16287;DHT22;8251;53.568;10.018;2024-01-30T06:01:23;8.40;87.90
16287;DHT22;8251;53.568;10.018;2024-01-30T06:03:52;8.40;87.90
16287;DHT22;8251;53.568;10.018;2024-01-30T06:06:19;8.40;87.80
16287;DHT22;8251;53.568;10.018;2024-01-30T06:08:47;8.40;87.80
16287;DHT22;8251;53.568;10.018;2024-01-30T06:11:15;8.40;87.90
16287;DHT22;8251;53.568;10.018;2024-01-30T06:13:44;8.30;87.80
16287;DHT22;8251;53.568;10.018;2024-01-30T06:16:11;8.30;88.00
16287;DHT22;8251;53.568;10.018;2024-01-30T06:18:38;8.30;88.30
16287;DHT22;8251;53.568;10.018;2024-01-30T06:21:05;8.30;88.10
16287;DHT22;8251;53.568;10.018;2024-01-30T06:23:32;8.20;88.40
16287;DHT22;8251;53.568;10.018;2024-01-30T06:26:00;8.20;88.60
16287;DHT22;8251;53.568;10.018;2024-01-30T06:28:27;8.20;88.70
16287;DHT22;8251;53.568;10.018;2024-01-30T06:30:54;8.20;88.80
16287;DHT22;8251;53.568;10.018;2024-01-30T06:33:21;8.20;88.80
16287;DHT22;8251;53.568;10.018;2024-01-30T06:35:48;8.20;88.80
16287;DHT22;8251;53.568;10.018;2024-01-30T06:38:15;8.20;88.90
16287;DHT22;8251;53.568;10.018;2024-01-30T06:40:44;8.30;89.10
16287;DHT22;8251;53.568;10.018;2024-01-30T06:43:15;8.30;89.20
16287;DHT22;8251;53.568;10.018;2024-01-30T06:45:45;8.30;89.00
16287;DHT22;8251;53.568;10.018;2024-01-30T06:48:12;8.30;89.00
16287;DHT22;8251;53.568;10.018;2024-01-30T06:50:41;8.40;89.00
16287;DHT22;8251;53.568;10.018;2024-01-30T06:53:10;8.40;89.10
16287;DHT22;8251;53.568;10.018;2024-01-30T06:55:37;8.40;89.10
16287;DHT22;8251;53.568;10.018;2024-01-30T06:58:04;8.40;89.10
16287;DHT22;8251;53.568;10.018;2024-01-30T07:00:35;8.40;89.10
16287;DHT22;8251;53.568;10.018;2024-01-30T07:03:03;8.50;88.90
16287;DHT22;8251;53.568;10.018;2024-01-30T07:05:30;8.40;89.00
16287;DHT22;8251;53.568;10.018;2024-01-30T07:07:57;8.50;88.90
16287;DHT22;8251;53.568;10.018;2024-01-30T07:10:25;8.50;89.10
16287;DHT22;8251;53.568;10.018;2024-01-30T07:12:57;8.50;88.90
16287;DHT22;8251;53.568;10.018;2024-01-30T07:15:25;8.50;89.10
16287;DHT22;8251;53.568;10.018;2024-01-30T07:17:54;8.40;89.20
16287;DHT22;8251;53.568;10.018;2024-01-30T07:20:21;8.50;89.30
16287;DHT22;8251;53.568;10.018;2024-01-30T07:22:49;8.40;89.10
16287;DHT22;8251;53.568;10.018;2024-01-30T07:25:17;8.50;89.30
16287;DHT22;8251;53.568;10.018;2024-01-30T07:27:43;8.50;89.30
16287;DHT22;8251;53.568;10.018;2024-01-30T07:30:12;8.50;89.30
16287;DHT22;8251;53.568;10.018;2024-01-30T07:32:38;8.50;89.30
16287;DHT22;8251;53.568;10.018;2024-01-30T07:35:07;8.50;89.10
16287;DHT22;8251;53.568;10.018;2024-01-30T07:37:37;8.50;89.20
16287;DHT22;8251;53.568;10.018;2024-01-30T07:40:05;8.50;89.30
16287;DHT22;8251;53.568;10.018;2024-01-30T07:42:33;8.50;88.70
16287;DHT22;8251;53.568;10.018;2024-01-30T07:45:03;8.50;89.70
16287;DHT22;8251;53.568;10.018;2024-01-30T07:47:30;8.60;89.90
16287;DHT22;8251;53.568;10.018;2024-01-30T07:50:00;8.60;89.90
16287;DHT22;8251;53.568;10.018;2024-01-30T07:52:28;8.60;89.90
16287;DHT22;8251;53.568;10.018;2024-01-30T07:54:55;8.70;89.90
16287;DHT22;8251;53.568;10.018;2024-01-30T07:57:22;8.70;89.90
16287;DHT22;8251;53.568;10.018;2024-01-30T07:59:50;8.80;89.90
16287;DHT22;8251;53.568;10.018;2024-01-30T08:02:17;8.80;89.80
16287;DHT22;8251;53.568;10.018;2024-01-30T08:04:44;8.90;89.90
16287;DHT22;8251;53.568;10.018;2024-01-30T08:07:14;8.90;89.80
16287;DHT22;8251;53.568;10.018;2024-01-30T08:09:42;8.90;89.80
16287;DHT22;8251;53.568;10.018;2024-01-30T08:12:09;9.00;89.80
16287;DHT22;8251;53.568;10.018;2024-01-30T08:14:36;9.00;89.00
16287;DHT22;8251;53.568;10.018;2024-01-30T08:17:03;9.00;89.70
16287;DHT22;8251;53.568;10.018;2024-01-30T08:19:30;9.10;89.70
16287;DHT22;8251;53.568;10.018;2024-01-30T08:21:57;9.10;89.70
16287;DHT22;8251;53.568;10.018;2024-01-30T08:24:24;9.20;89.60
16287;DHT22;8251;53.568;10.018;2024-01-30T08:26:53;9.20;89.40
16287;DHT22;8251;53.568;10.018;2024-01-30T08:29:19;9.20;89.40
16287;DHT22;8251;53.568;10.018;2024-01-30T08:31:46;9.20;89.40
16287;DHT22;8251;53.568;10.018;2024-01-30T08:34:13;9.30;89.60
16287;DHT22;8251;53.568;10.018;2024-01-30T08:36:40;9.30;89.40
16287;DHT22;8251;53.568;10.018;2024-01-30T08:39:07;9.30;89.20
16287;DHT22;8251;53.568;10.018;2024-01-30T08:41:34;9.40;89.20
16287;DHT22;8251;53.568;10.018;2024-01-30T08:44:02;9.40;89.10
16287;DHT22;8251;53.568;10.018;2024-01-30T08:46:33;9.50;88.80
16287;DHT22;8251;53.568;10.018;2024-01-30T08:49:08;9.50;88.80
16287;DHT22;8251;53.568;10.018;2024-01-30T08:51:38;9.50;88.60
16287;DHT22;8251;53.568;10.018;2024-01-30T08:54:08;9.50;88.60
16287;DHT22;8251;53.568;10.018;2024-01-30T08:56:35;9.60;88.70
16287;DHT22;8251;53.568;10.018;2024-01-30T08:59:04;9.60;88.60
16287;DHT22;8251;53.568;10.018;2024-01-30T09:01:30;9.60;88.40
16287;DHT22;8251;53.568;10.018;2024-01-30T09:03:57;9.70;88.40
16287;DHT22;8251;53.568;10.018;2024-01-30T09:06:24;9.70;88.20
16287;DHT22;8251;53.568;10.018;2024-01-30T09:08:54;9.70;88.40
16287;DHT22;8251;53.568;10.018;2024-01-30T09:11:23;9.70;88.50
16287;DHT22;8251;53.568;10.018;2024-01-30T09:13:53;9.70;88.50
16287;DHT22;8251;53.568;10.018;2024-01-30T09:16:21;9.80;88.60
16287;DHT22;8251;53.568;10.018;2024-01-30T09:18:48;9.80;88.40
16287;DHT22;8251;53.568;10.018;2024-01-30T09:21:15;9.90;88.50
16287;DHT22;8251;53.568;10.018;2024-01-30T09:23:42;9.90;88.40
16287;DHT22;8251;53.568;10.018;2024-01-30T09:26:09;9.90;88.50
16287;DHT22;8251;53.568;10.018;2024-01-30T09:28:39;10.00;88.30
16287;DHT22;8251;53.568;10.018;2024-01-30T09:31:09;10.00;88.30
16287;DHT22;8251;53.568;10.018;2024-01-30T09:33:41;10.10;88.30
16287;DHT22;8251;53.568;10.018;2024-01-30T09:36:09;10.20;88.40
16287;DHT22;8251;53.568;10.018;2024-01-30T09:38:39;10.20;88.00
16287;DHT22;8251;53.568;10.018;2024-01-30T09:41:09;10.30;88.10
16287;DHT22;8251;53.568;10.018;2024-01-30T09:43:38;10.40;87.90
16287;DHT22;8251;53.568;10.018;2024-01-30T09:46:05;10.40;87.90
16287;DHT22;8251;53.568;10.018;2024-01-30T09:48:39;10.50;87.90
16287;DHT22;8251;53.568;10.018;2024-01-30T09:51:10;10.60;87.60
16287;DHT22;8251;53.568;10.018;2024-01-30T09:53:37;10.70;87.20
16287;DHT22;8251;53.568;10.018;2024-01-30T09:56:06;10.70;87.90
16287;DHT22;8251;53.568;10.018;2024-01-30T09:58:33;10.70;87.10
16287;DHT22;8251;53.568;10.018;2024-01-30T10:01:00;10.80;87.70
16287;DHT22;8251;53.568;10.018;2024-01-30T10:03:28;10.80;86.90
16287;DHT22;8251;53.568;10.018;2024-01-30T10:05:57;10.90;86.80
16287;DHT22;8251;53.568;10.018;2024-01-30T10:08:26;10.90;86.60
16287;DHT22;8251;53.568;10.018;2024-01-30T10:10:58;11.00;86.50
16287;DHT22;8251;53.568;10.018;2024-01-30T10:13:25;11.00;86.30
16287;DHT22;8251;53.568;10.018;2024-01-30T10:15:53;11.00;86.30
16287;DHT22;8251;53.568;10.018;2024-01-30T10:18:22;11.10;86.30
16287;DHT22;8251;53.568;10.018;2024-01-30T10:20:49;11.20;86.00
16287;DHT22;8251;53.568;10.018;2024-01-30T10:23:20;11.20;85.70
16287;DHT22;8251;53.568;10.018;2024-01-30T10:25:47;11.30;85.70
16287;DHT22;8251;53.568;10.018;2024-01-30T10:28:14;11.30;85.50
16287;DHT22;8251;53.568;10.018;2024-01-30T10:30:40;11.30;85.30
16287;DHT22;8251;53.568;10.018;2024-01-30T10:33:08;11.30;85.30
16287;DHT22;8251;53.568;10.018;2024-01-30T10:35:35;11.30;85.40
16287;DHT22;8251;53.568;10.018;2024-01-30T10:38:03;11.40;85.50
16287;DHT22;8251;53.568;10.018;2024-01-30T10:40:35;11.50;85.40
16287;DHT22;8251;53.568;10.018;2024-01-30T10:43:04;11.50;85.20
16287;DHT22;8251;53.568;10.018;2024-01-30T10:45:35;11.50;85.10
16287;DHT22;8251;53.568;10.018;2024-01-30T10:48:09;11.60;85.30
16287;DHT22;8251;53.568;10.018;2024-01-30T10:50:36;11.60;85.80
16287;DHT22;8251;53.568;10.018;2024-01-30T10:53:08;11.60;85.10
16287;DHT22;8251;53.568;10.018;2024-01-30T10:55:37;11.60;85.10
16287;DHT22;8251;53.568;10.018;2024-01-30T10:58:05;11.70;85.10
16287;DHT22;8251;53.568;10.018;2024-01-30T11:00:33;11.80;85.20
16287;DHT22;8251;53.568;10.018;2024-01-30T11:03:00;11.80;85.00
16287;DHT22;8251;53.568;10.018;2024-01-30T11:05:27;11.80;84.90
16287;DHT22;8251;53.568;10.018;2024-01-30T11:07:54;11.80;84.80
16287;DHT22;8251;53.568;10.018;2024-01-30T11:10:25;11.90;84.80
16287;DHT22;8251;53.568;10.018;2024-01-30T11:12:53;12.00;84.70
16287;DHT22;8251;53.568;10.018;2024-01-30T11:15:21;12.00;84.60
16287;DHT22;8251;53.568;10.018;2024-01-30T11:17:52;12.00;84.40
16287;DHT22;8251;53.568;10.018;2024-01-30T11:20:21;12.00;84.20
16287;DHT22;8251;53.568;10.018;2024-01-30T11:22:51;12.00;84.20
16287;DHT22;8251;53.568;10.018;2024-01-30T11:25:20;12.00;84.00
16287;DHT22;8251;53.568;10.018;2024-01-30T11:27:50;12.00;83.80
16287;DHT22;8251;53.568;10.018;2024-01-30T11:30:26;11.90;84.30
16287;DHT22;8251;53.568;10.018;2024-01-30T11:33:04;11.90;84.60
16287;DHT22;8251;53.568;10.018;2024-01-30T11:35:32;11.90;84.60
16287;DHT22;8251;53.568;10.018;2024-01-30T11:38:00;11.90;84.60
16287;DHT22;8251;53.568;10.018;2024-01-30T11:40:28;11.90;84.60
16287;DHT22;8251;53.568;10.018;2024-01-30T11:42:55;11.90;84.80
16287;DHT22;8251;53.568;10.018;2024-01-30T11:45:22;12.00;84.90
16287;DHT22;8251;53.568;10.018;2024-01-30T11:47:51;12.00;85.00
16287;DHT22;8251;53.568;10.018;2024-01-30T11:50:18;12.00;85.00
16287;DHT22;8251;53.568;10.018;2024-01-30T11:52:45;12.00;84.90
16287;DHT22;8251;53.568;10.018;2024-01-30T11:55:15;12.10;85.70
16287;DHT22;8251;53.568;10.018;2024-01-30T11:57:42;12.10;85.00
16287;DHT22;8251;53.568;10.018;2024-01-30T12:00:17;12.10;84.90
16287;DHT22;8251;53.568;10.018;2024-01-30T12:02:48;12.10;84.90
16287;DHT22;8251;53.568;10.018;2024-01-30T12:05:19;12.20;85.00
16287;DHT22;8251;53.568;10.018;2024-01-30T12:07:46;12.20;85.20
16287;DHT22;8251;53.568;10.018;2024-01-30T12:10:15;12.10;85.40
16287;DHT22;8251;53.568;10.018;2024-01-30T12:12:49;12.10;85.40
16287;DHT22;8251;53.568;10.018;2024-01-30T12:15:22;12.10;85.60
16287;DHT22;8251;53.568;10.018;2024-01-30T12:17:49;12.10;85.80
16287;DHT22;8251;53.568;10.018;2024-01-30T12:20:18;12.10;85.90
16287;DHT22;8251;53.568;10.018;2024-01-30T12:22:46;12.20;85.90
16287;DHT22;8251;53.568;10.018;2024-01-30T12:25:15;12.20;85.80
16287;DHT22;8251;53.568;10.018;2024-01-30T12:27:46;12.20;85.80
16287;DHT22;8251;53.568;10.018;2024-01-30T12:30:16;12.20;86.00
16287;DHT22;8251;53.568;10.018;2024-01-30T12:32:44;12.20;86.20
16287;DHT22;8251;53.568;10.018;2024-01-30T12:35:12;12.20;86.30
16287;DHT22;8251;53.568;10.018;2024-01-30T12:37:41;12.20;86.20
16287;DHT22;8251;53.568;10.018;2024-01-30T12:40:10;12.30;86.30
16287;DHT22;8251;53.568;10.018;2024-01-30T12:42:38;12.30;86.30
16287;DHT22;8251;53.568;10.018;2024-01-30T12:45:06;12.30;86.40
16287;DHT22;8251;53.568;10.018;2024-01-30T12:47:34;12.30;86.60
16287;DHT22;8251;53.568;10.018;2024-01-30T12:50:03;12.20;86.70
16287;DHT22;8251;53.568;10.018;2024-01-30T12:52:31;12.20;87.00
16287;DHT22;8251;53.568;10.018;2024-01-30T12:54:59;12.20;87.00
16287;DHT22;8251;53.568;10.018;2024-01-30T12:57:26;12.10;87.10
16287;DHT22;8251;53.568;10.018;2024-01-30T12:59:55;12.10;87.50
16287;DHT22;8251;53.568;10.018;2024-01-30T13:02:23;12.10;87.70
16287;DHT22;8251;53.568;10.018;2024-01-30T13:04:54;12.10;87.70
16287;DHT22;8251;53.568;10.018;2024-01-30T13:07:21;12.10;87.80
16287;DHT22;8251;53.568;10.018;2024-01-30T13:09:48;12.10;87.90
16287;DHT22;8251;53.568;10.018;2024-01-30T13:12:17;12.20;88.70
16287;DHT22;8251;53.568;10.018;2024-01-30T13:14:46;12.20;87.90
16287;DHT22;8251;53.568;10.018;2024-01-30T13:17:13;12.20;88.70
16287;DHT22;8251;53.568;10.018;2024-01-30T13:19:40;12.20;87.90
16287;DHT22;8251;53.568;10.018;2024-01-30T13:22:07;12.20;87.90
16287;DHT22;8251;53.568;10.018;2024-01-30T13:24:34;12.10;88.10
16287;DHT22;8251;53.568;10.018;2024-01-30T13:27:05;12.10;88.20
16287;DHT22;8251;53.568;10.018;2024-01-30T13:29:41;12.10;88.50
16287;DHT22;8251;53.568;10.018;2024-01-30T13:32:11;12.10;88.70
16287;DHT22;8251;53.568;10.018;2024-01-30T13:34:38;12.10;88.80
16287;DHT22;8251;53.568;10.018;2024-01-30T13:37:06;12.10;88.10
16287;DHT22;8251;53.568;10.018;2024-01-30T13:39:33;12.10;88.70
16287;DHT22;8251;53.568;10.018;2024-01-30T13:42:02;12.20;89.00
16287;DHT22;8251;53.568;10.018;2024-01-30T13:44:29;12.20;88.90
16287;DHT22;8251;53.568;10.018;2024-01-30T13:47:00;12.20;88.30
16287;DHT22;8251;53.568;10.018;2024-01-30T13:49:27;12.20;88.90
16287;DHT22;8251;53.568;10.018;2024-01-30T13:51:53;12.20;88.90
16287;DHT22;8251;53.568;10.018;2024-01-30T13:54:26;12.20;89.00
16287;DHT22;8251;53.568;10.018;2024-01-30T13:56:57;12.30;88.50
16287;DHT22;8251;53.568;10.018;2024-01-30T13:59:26;12.30;89.10
16287;DHT22;8251;53.568;10.018;2024-01-30T14:01:53;12.30;89.20
16287;DHT22;8251;53.568;10.018;2024-01-30T14:04:21;12.30;89.10
16287;DHT22;8251;53.568;10.018;2024-01-30T14:06:48;12.40;89.10
16287;DHT22;8251;53.568;10.018;2024-01-30T14:09:14;12.40;89.10
16287;DHT22;8251;53.568;10.018;2024-01-30T14:11:44;12.40;89.20
16287;DHT22;8251;53.568;10.018;2024-01-30T14:14:11;12.40;89.10
16287;DHT22;8251;53.568;10.018;2024-01-30T14:16:38;12.40;89.10
16287;DHT22;8251;53.568;10.018;2024-01-30T14:19:05;12.50;89.10
16287;DHT22;8251;53.568;10.018;2024-01-30T14:21:33;12.50;89.20
16287;DHT22;8251;53.568;10.018;2024-01-30T14:24:00;12.40;89.20
16287;DHT22;8251;53.568;10.018;2024-01-30T14:26:29;12.50;89.40
16287;DHT22;8251;53.568;10.018;2024-01-30T14:28:57;12.50;89.40
16287;DHT22;8251;53.568;10.018;2024-01-30T14:31:23;12.50;89.50
16287;DHT22;8251;53.568;10.018;2024-01-30T14:33:51;12.50;89.60
16287;DHT22;8251;53.568;10.018;2024-01-30T14:36:18;12.50;90.00
16287;DHT22;8251;53.568;10.018;2024-01-30T14:38:49;12.50;90.20
16287;DHT22;8251;53.568;10.018;2024-01-30T14:41:16;12.50;90.00
16287;DHT22;8251;53.568;10.018;2024-01-30T14:43:43;12.50;89.80
16287;DHT22;8251;53.568;10.018;2024-01-30T14:46:10;12.50;90.00
16287;DHT22;8251;53.568;10.018;2024-01-30T14:48:37;12.50;90.00
16287;DHT22;8251;53.568;10.018;2024-01-30T14:51:06;12.50;90.00
16287;DHT22;8251;53.568;10.018;2024-01-30T14:53:36;12.50;90.10
16287;DHT22;8251;53.568;10.018;2024-01-30T14:56:05;12.50;90.10
16287;DHT22;8251;53.568;10.018;2024-01-30T14:58:32;12.50;90.10
16287;DHT22;8251;53.568;10.018;2024-01-30T15:00:59;12.50;90.10
16287;DHT22;8251;53.568;10.018;2024-01-30T15:03:27;12.40;90.20
16287;DHT22;8251;53.568;10.018;2024-01-30T15:05:58;12.40;90.30
16287;DHT22;8251;53.568;10.018;2024-01-30T15:08:25;12.40;90.30
16287;DHT22;8251;53.568;10.018;2024-01-30T15:10:54;12.50;90.30
16287;DHT22;8251;53.568;10.018;2024-01-30T15:13:24;12.50;90.30
16287;DHT22;8251;53.568;10.018;2024-01-30T15:15:58;12.50;90.30
16287;DHT22;8251;53.568;10.018;2024-01-30T15:18:25;12.50;90.40
16287;DHT22;8251;53.568;10.018;2024-01-30T15:20:52;12.50;90.40
16287;DHT22;8251;53.568;10.018;2024-01-30T15:23:19;12.50;90.30
16287;DHT22;8251;53.568;10.018;2024-01-30T15:25:46;12.50;90.30
16287;DHT22;8251;53.568;10.018;2024-01-30T15:28:13;12.50;90.30
16287;DHT22;8251;53.568;10.018;2024-01-30T15:30:41;12.50;90.40
16287;DHT22;8251;53.568;10.018;2024-01-30T15:33:10;12.50;90.40
16287;DHT22;8251;53.568;10.018;2024-01-30T15:35:39;12.50;90.40
16287;DHT22;8251;53.568;10.018;2024-01-30T15:38:10;12.50;90.50
16287;DHT22;8251;53.568;10.018;2024-01-30T15:40:54;12.50;90.50
16287;DHT22;8251;53.568;10.018;2024-01-30T15:43:27;12.50;90.60
16287;DHT22;8251;53.568;10.018;2024-01-30T15:45:59;12.40;90.70
16287;DHT22;8251;53.568;10.018;2024-01-30T15:48:27;12.50;90.70
16287;DHT22;8251;53.568;10.018;2024-01-30T15:50:54;12.40;90.80
16287;DHT22;8251;53.568;10.018;2024-01-30T15:53:21;12.40;90.80
16287;DHT22;8251;53.568;10.018;2024-01-30T15:55:48;12.40;90.80